sensor_id;sensor_type;location;lat;lon;timestamp;pressure;altitude;pressure_sealevel;temperature;humidity
38939;BME280;24211;49.980;19.776;2023-05-22T00:01:32;99498.84;;;15.87;100.00
38939;BME280;24211;49.980;19.776;2023-05-22T00:03:59;99501.78;;;15.85;100.00
38939;BME280;24211;49.980;19.776;2023-05-22T00:06:28;99504.25;;;15.87;100.00
38939;BME280;24211;49.980;19.776;2023-05-22T00:08:56;99508.00;;;15.86;100.00
38939;BME280;24211;49.980;19.776;2023-05-22T00:26:38;99492.41;;;15.66;100.00
38939;BME280;24211;49.980;19.776;2023-05-22T00:29:05;99499.38;;;15.62;100.00
38939;BME280;24211;49.980;19.776;2023-05-22T00:31:33;99497.47;;;15.57;100.00
38939;BME280;24211;49.980;19.776;2023-05-22T00:40:21;99504.09;;;15.50;100.00
38939;BME280;24211;49.980;19.776;2023-05-22T00:49:46;99498.72;;;15.33;100.00
38939;BME280;24211;49.980;19.776;2023-05-22T00:56:25;99502.38;;;15.22;100.00
38939;BME280;24211;49.980;19.776;2023-05-22T00:58:55;99486.50;;;15.21;100.00
38939;BME280;24211;49.980;19.776;2023-05-22T01:01:23;99501.75;;;15.15;100.00
38939;BME280;24211;49.980;19.776;2023-05-22T01:03:52;99497.13;;;15.11;100.00
38939;BME280;24211;49.980;19.776;2023-05-22T01:06:20;99494.59;;;15.04;100.00
38939;BME280;24211;49.980;19.776;2023-05-22T01:08:47;99497.22;;;14.99;100.00
38939;BME280;24211;49.980;19.776;2023-05-22T01:12:08;99493.66;;;14.93;100.00
38939;BME280;24211;49.980;19.776;2023-05-22T01:14:45;99489.53;;;14.86;100.00
38939;BME280;24211;49.980;19.776;2023-05-22T01:17:36;99487.81;;;14.80;100.00
38939;BME280;24211;49.980;19.776;2023-05-22T01:20:32;99487.16;;;14.73;100.00
38939;BME280;24211;49.980;19.776;2023-05-22T01:23:42;99482.78;;;14.67;100.00
38939;BME280;24211;49.980;19.776;2023-05-22T01:32:20;99479.22;;;14.45;100.00
38939;BME280;24211;49.980;19.776;2023-05-22T01:34:55;99484.53;;;14.39;100.00
38939;BME280;24211;49.980;19.776;2023-05-22T01:37:24;99482.13;;;14.26;100.00
38939;BME280;24211;49.980;19.776;2023-05-22T01:39:54;99478.78;;;14.19;100.00
38939;BME280;24211;49.980;19.776;2023-05-22T01:42:22;99479.75;;;14.13;100.00
38939;BME280;24211;49.980;19.776;2023-05-22T01:44:50;99480.16;;;14.05;100.00
38939;BME280;24211;49.980;19.776;2023-05-22T01:47:17;99479.81;;;14.02;100.00
38939;BME280;24211;49.980;19.776;2023-05-22T01:49:45;99474.84;;;13.94;100.00
38939;BME280;24211;49.980;19.776;2023-05-22T01:52:33;99472.22;;;13.82;100.00
38939;BME280;24211;49.980;19.776;2023-05-22T01:55:14;99478.72;;;13.86;100.00
38939;BME280;24211;49.980;19.776;2023-05-22T02:00:45;99471.75;;;13.85;100.00
38939;BME280;24211;49.980;19.776;2023-05-22T02:03:19;99482.50;;;13.85;100.00
38939;BME280;24211;49.980;19.776;2023-05-22T02:05:54;99482.88;;;13.77;100.00
38939;BME280;24211;49.980;19.776;2023-05-22T02:08:26;99486.75;;;13.69;100.00
38939;BME280;24211;49.980;19.776;2023-05-22T02:10:55;99483.56;;;13.56;100.00
38939;BME280;24211;49.980;19.776;2023-05-22T02:13:23;99485.09;;;13.52;100.00
38939;BME280;24211;49.980;19.776;2023-05-22T02:15:51;99486.06;;;13.46;100.00
38939;BME280;24211;49.980;19.776;2023-05-22T02:18:18;99482.28;;;13.47;100.00
38939;BME280;24211;49.980;19.776;2023-05-22T02:20:45;99477.44;;;13.44;100.00
38939;BME280;24211;49.980;19.776;2023-05-22T02:23:13;99482.09;;;13.37;100.00
38939;BME280;24211;49.980;19.776;2023-05-22T02:25:40;99485.19;;;13.29;100.00
38939;BME280;24211;49.980;19.776;2023-05-22T02:28:07;99484.50;;;13.22;100.00
38939;BME280;24211;49.980;19.776;2023-05-22T02:30:34;99492.44;;;13.17;100.00
38939;BME280;24211;49.980;19.776;2023-05-22T02:33:03;99481.72;;;13.17;100.00
38939;BME280;24211;49.980;19.776;2023-05-22T02:35:32;99484.88;;;13.14;100.00
38939;BME280;24211;49.980;19.776;2023-05-22T02:38:00;99487.28;;;13.03;100.00
38939;BME280;24211;49.980;19.776;2023-05-22T02:40:30;99482.41;;;13.00;100.00
38939;BME280;24211;49.980;19.776;2023-05-22T02:42:57;99482.41;;;12.89;100.00
38939;BME280;24211;49.980;19.776;2023-05-22T02:45:27;99477.88;;;12.78;100.00
38939;BME280;24211;49.980;19.776;2023-05-22T02:47:54;99487.44;;;12.74;100.00
38939;BME280;24211;49.980;19.776;2023-05-22T02:50:22;99482.88;;;12.86;100.00
38939;BME280;24211;49.980;19.776;2023-05-22T02:52:49;99485.44;;;12.92;100.00
38939;BME280;24211;49.980;19.776;2023-05-22T02:55:16;99478.56;;;12.96;100.00
38939;BME280;24211;49.980;19.776;2023-05-22T02:57:43;99479.13;;;12.98;100.00
38939;BME280;24211;49.980;19.776;2023-05-22T03:00:11;99477.75;;;12.96;100.00
38939;BME280;24211;49.980;19.776;2023-05-22T03:02:38;99489.28;;;12.96;100.00
38939;BME280;24211;49.980;19.776;2023-05-22T03:05:06;99486.63;;;12.96;100.00
38939;BME280;24211;49.980;19.776;2023-05-22T03:07:33;99486.75;;;12.78;100.00
38939;BME280;24211;49.980;19.776;2023-05-22T03:10:01;99489.19;;;12.80;100.00
38939;BME280;24211;49.980;19.776;2023-05-22T03:12:28;99485.13;;;12.77;100.00
38939;BME280;24211;49.980;19.776;2023-05-22T03:14:55;99491.53;;;12.76;100.00
38939;BME280;24211;49.980;19.776;2023-05-22T03:17:22;99487.31;;;12.80;100.00
38939;BME280;24211;49.980;19.776;2023-05-22T03:19:50;99488.50;;;12.84;100.00
38939;BME280;24211;49.980;19.776;2023-05-22T03:22:17;99490.09;;;12.85;100.00
38939;BME280;24211;49.980;19.776;2023-05-22T03:24:44;99499.91;;;12.91;100.00
38939;BME280;24211;49.980;19.776;2023-05-22T03:27:14;99492.91;;;12.90;100.00
38939;BME280;24211;49.980;19.776;2023-05-22T03:29:45;99501.06;;;12.95;100.00
38939;BME280;24211;49.980;19.776;2023-05-22T03:32:12;99500.59;;;12.98;100.00
38939;BME280;24211;49.980;19.776;2023-05-22T03:34:39;99500.13;;;13.01;100.00
38939;BME280;24211;49.980;19.776;2023-05-22T03:37:09;99502.34;;;13.04;100.00
38939;BME280;24211;49.980;19.776;2023-05-22T03:39:36;99501.28;;;13.05;100.00
38939;BME280;24211;49.980;19.776;2023-05-22T03:42:16;99498.03;;;13.03;100.00
38939;BME280;24211;49.980;19.776;2023-05-22T03:44:58;99493.38;;;13.10;100.00
38939;BME280;24211;49.980;19.776;2023-05-22T03:47:34;99492.22;;;13.06;100.00
38939;BME280;24211;49.980;19.776;2023-05-22T03:50:02;99500.97;;;13.02;100.00
38939;BME280;24211;49.980;19.776;2023-05-22T03:52:29;99495.91;;;13.05;100.00
38939;BME280;24211;49.980;19.776;2023-05-22T03:54:56;99499.66;;;13.04;100.00
38939;BME280;24211;49.980;19.776;2023-05-22T03:57:24;99492.44;;;13.17;100.00
38939;BME280;24211;49.980;19.776;2023-05-22T03:59:56;99492.16;;;13.30;100.00
38939;BME280;24211;49.980;19.776;2023-05-22T04:02:40;99495.16;;;13.45;100.00
38939;BME280;24211;49.980;19.776;2023-05-22T04:09:37;99483.53;;;13.84;100.00
38939;BME280;24211;49.980;19.776;2023-05-22T04:12:24;99484.38;;;14.01;100.00
38939;BME280;24211;49.980;19.776;2023-05-22T04:14:51;99488.28;;;14.10;100.00
38939;BME280;24211;49.980;19.776;2023-05-22T04:17:18;99493.91;;;14.25;100.00
38939;BME280;24211;49.980;19.776;2023-05-22T04:19:45;99483.44;;;14.40;100.00
38939;BME280;24211;49.980;19.776;2023-05-22T04:22:13;99488.50;;;14.54;100.00
38939;BME280;24211;49.980;19.776;2023-05-22T04:24:40;99486.03;;;14.69;100.00
38939;BME280;24211;49.980;19.776;2023-05-22T04:27:07;99483.06;;;14.87;100.00
38939;BME280;24211;49.980;19.776;2023-05-22T04:29:36;99487.09;;;15.06;100.00
38939;BME280;24211;49.980;19.776;2023-05-22T04:32:04;99479.19;;;15.21;100.00
38939;BME280;24211;49.980;19.776;2023-05-22T04:34:33;99475.63;;;15.37;100.00
38939;BME280;24211;49.980;19.776;2023-05-22T04:37:04;99473.22;;;15.57;100.00
38939;BME280;24211;49.980;19.776;2023-05-22T04:39:32;99470.66;;;15.73;100.00
38939;BME280;24211;49.980;19.776;2023-05-22T04:42:00;99465.47;;;15.93;100.00
38939;BME280;24211;49.980;19.776;2023-05-22T04:44:32;99467.28;;;16.14;100.00
38939;BME280;24211;49.980;19.776;2023-05-22T04:47:02;99466.59;;;16.28;100.00
38939;BME280;24211;49.980;19.776;2023-05-22T04:49:34;99462.66;;;16.41;100.00
38939;BME280;24211;49.980;19.776;2023-05-22T04:52:01;99462.50;;;16.53;100.00
38939;BME280;24211;49.980;19.776;2023-05-22T04:54:31;99466.94;;;16.74;100.00
38939;BME280;24211;49.980;19.776;2023-05-22T04:56:59;99466.25;;;16.93;100.00
38939;BME280;24211;49.980;19.776;2023-05-22T04:59:35;99460.41;;;17.17;100.00
38939;BME280;24211;49.980;19.776;2023-05-22T05:02:08;99452.41;;;17.42;100.00
38939;BME280;24211;49.980;19.776;2023-05-22T05:04:35;99461.94;;;17.64;100.00
38939;BME280;24211;49.980;19.776;2023-05-22T05:07:03;99456.31;;;17.81;100.00
38939;BME280;24211;49.980;19.776;2023-05-22T05:09:32;99453.34;;;17.93;100.00
38939;BME280;24211;49.980;19.776;2023-05-22T05:12:01;99455.50;;;18.11;100.00
38939;BME280;24211;49.980;19.776;2023-05-22T05:14:29;99453.91;;;18.25;100.00
38939;BME280;24211;49.980;19.776;2023-05-22T05:16:56;99457.41;;;18.46;100.00
38939;BME280;24211;49.980;19.776;2023-05-22T05:19:24;99460.94;;;18.61;100.00
38939;BME280;24211;49.980;19.776;2023-05-22T05:21:52;99459.28;;;18.80;100.00
38939;BME280;24211;49.980;19.776;2023-05-22T05:24:20;99455.47;;;18.91;100.00
38939;BME280;24211;49.980;19.776;2023-05-22T05:26:49;99459.44;;;19.14;100.00
38939;BME280;24211;49.980;19.776;2023-05-22T05:29:18;99461.53;;;19.32;100.00
38939;BME280;24211;49.980;19.776;2023-05-22T05:32:06;99453.91;;;19.44;100.00
38939;BME280;24211;49.980;19.776;2023-05-22T05:34:50;99463.59;;;19.61;100.00
38939;BME280;24211;49.980;19.776;2023-05-22T05:37:24;99452.91;;;19.79;100.00
38939;BME280;24211;49.980;19.776;2023-05-22T05:39:55;99453.84;;;19.98;100.00
38939;BME280;24211;49.980;19.776;2023-05-22T05:42:22;99450.97;;;20.24;100.00
38939;BME280;24211;49.980;19.776;2023-05-22T05:44:51;99446.75;;;20.41;96.00
38939;BME280;24211;49.980;19.776;2023-05-22T05:47:21;99449.28;;;20.61;89.90
38939;BME280;24211;49.980;19.776;2023-05-22T05:49:50;99444.59;;;20.67;93.22
38939;BME280;24211;49.980;19.776;2023-05-22T05:52:18;99441.38;;;20.88;91.99
38939;BME280;24211;49.980;19.776;2023-05-22T05:54:45;99452.03;;;21.09;90.21
38939;BME280;24211;49.980;19.776;2023-05-22T05:57:18;99442.75;;;21.33;84.28
38939;BME280;24211;49.980;19.776;2023-05-22T05:59:46;99443.91;;;21.51;80.74
38939;BME280;24211;49.980;19.776;2023-05-22T06:02:31;99443.03;;;21.74;75.93
38939;BME280;24211;49.980;19.776;2023-05-22T06:05:02;99443.94;;;21.88;72.73
38939;BME280;24211;49.980;19.776;2023-05-22T06:07:33;99440.47;;;22.01;75.56
38939;BME280;24211;49.980;19.776;2023-05-22T06:10:11;99438.03;;;22.19;74.65
38939;BME280;24211;49.980;19.776;2023-05-22T06:23:27;99440.59;;;23.15;67.69
38939;BME280;24211;49.980;19.776;2023-05-22T06:25:55;99428.28;;;23.18;68.98
38939;BME280;24211;49.980;19.776;2023-05-22T06:28:24;99428.88;;;23.28;67.34
38939;BME280;24211;49.980;19.776;2023-05-22T06:30:52;99422.44;;;23.74;61.75
38939;BME280;24211;49.980;19.776;2023-05-22T06:33:21;99427.53;;;23.89;61.46
38939;BME280;24211;49.980;19.776;2023-05-22T06:35:49;99424.94;;;24.06;57.88
38939;BME280;24211;49.980;19.776;2023-05-22T06:38:17;99425.97;;;24.32;54.60
38939;BME280;24211;49.980;19.776;2023-05-22T06:40:44;99415.75;;;24.46;52.45
38939;BME280;24211;49.980;19.776;2023-05-22T06:43:17;99419.69;;;24.62;53.11
38939;BME280;24211;49.980;19.776;2023-05-22T06:46:06;99421.66;;;24.70;53.12
38939;BME280;24211;49.980;19.776;2023-05-22T06:48:48;99419.50;;;24.90;52.37
38939;BME280;24211;49.980;19.776;2023-05-22T06:51:31;99414.38;;;24.97;49.60
38939;BME280;24211;49.980;19.776;2023-05-22T06:54:03;99419.00;;;25.27;49.39
38939;BME280;24211;49.980;19.776;2023-05-22T06:56:35;99418.19;;;25.26;48.10
38939;BME280;24211;49.980;19.776;2023-05-22T06:59:05;99422.28;;;25.46;47.86
38939;BME280;24211;49.980;19.776;2023-05-22T07:01:51;99417.41;;;25.43;49.35
38939;BME280;24211;49.980;19.776;2023-05-22T07:04:30;99415.53;;;25.69;50.21
38939;BME280;24211;49.980;19.776;2023-05-22T07:07:27;99413.91;;;25.85;50.76
38939;BME280;24211;49.980;19.776;2023-05-22T07:09:55;99411.34;;;25.97;51.01
38939;BME280;24211;49.980;19.776;2023-05-22T07:12:25;99411.81;;;26.08;50.57
38939;BME280;24211;49.980;19.776;2023-05-22T07:30:18;99388.13;;;27.43;45.96
38939;BME280;24211;49.980;19.776;2023-05-22T07:38:11;99386.00;;;27.69;43.95
38939;BME280;24211;49.980;19.776;2023-05-22T07:40:45;99385.84;;;27.86;43.43
38939;BME280;24211;49.980;19.776;2023-05-22T07:43:13;99386.56;;;28.16;42.43
38939;BME280;24211;49.980;19.776;2023-05-22T07:45:41;99378.72;;;28.38;42.26
38939;BME280;24211;49.980;19.776;2023-05-22T07:48:13;99380.91;;;28.33;42.26
38939;BME280;24211;49.980;19.776;2023-05-22T07:50:40;99379.94;;;28.29;42.11
38939;BME280;24211;49.980;19.776;2023-05-22T07:53:11;99386.94;;;28.26;41.72
38939;BME280;24211;49.980;19.776;2023-05-22T07:55:41;99375.13;;;28.71;41.95
38939;BME280;24211;49.980;19.776;2023-05-22T07:58:08;99378.00;;;28.29;40.01
38939;BME280;24211;49.980;19.776;2023-05-22T08:00:40;99378.38;;;28.28;38.29
38939;BME280;24211;49.980;19.776;2023-05-22T08:03:08;99388.72;;;28.10;38.33
38939;BME280;24211;49.980;19.776;2023-05-22T08:05:35;99375.25;;;28.29;38.69
38939;BME280;24211;49.980;19.776;2023-05-22T08:08:02;99372.31;;;28.34;37.24
38939;BME280;24211;49.980;19.776;2023-05-22T08:10:30;99375.31;;;28.53;36.82
38939;BME280;24211;49.980;19.776;2023-05-22T08:13:18;99374.13;;;28.30;35.97
38939;BME280;24211;49.980;19.776;2023-05-22T08:15:45;99379.66;;;28.42;36.66
38939;BME280;24211;49.980;19.776;2023-05-22T08:18:12;99368.88;;;28.37;36.35
38939;BME280;24211;49.980;19.776;2023-05-22T08:20:40;99379.50;;;28.72;36.73
38939;BME280;24211;49.980;19.776;2023-05-22T08:23:07;99373.06;;;28.80;35.68
38939;BME280;24211;49.980;19.776;2023-05-22T08:25:35;99372.63;;;29.14;35.71
38939;BME280;24211;49.980;19.776;2023-05-22T08:28:03;99374.34;;;29.06;36.39
38939;BME280;24211;49.980;19.776;2023-05-22T08:30:30;99373.78;;;28.32;35.62
38939;BME280;24211;49.980;19.776;2023-05-22T08:32:57;99377.78;;;29.03;37.02
38939;BME280;24211;49.980;19.776;2023-05-22T08:35:24;99383.84;;;29.45;34.89
38939;BME280;24211;49.980;19.776;2023-05-22T08:37:51;99382.47;;;29.15;33.83
38939;BME280;24211;49.980;19.776;2023-05-22T08:40:19;99376.28;;;29.30;34.40
38939;BME280;24211;49.980;19.776;2023-05-22T08:42:46;99371.22;;;29.32;34.53
38939;BME280;24211;49.980;19.776;2023-05-22T08:45:14;99371.22;;;29.32;35.67
38939;BME280;24211;49.980;19.776;2023-05-22T08:47:45;99377.66;;;28.88;36.26
38939;BME280;24211;49.980;19.776;2023-05-22T08:50:18;99363.66;;;28.81;36.32
38939;BME280;24211;49.980;19.776;2023-05-22T08:52:50;99363.91;;;28.88;36.17
38939;BME280;24211;49.980;19.776;2023-05-22T08:55:18;99361.13;;;29.24;37.03
38939;BME280;24211;49.980;19.776;2023-05-22T08:57:46;99359.56;;;28.99;36.83
38939;BME280;24211;49.980;19.776;2023-05-22T09:00:15;99357.47;;;28.60;35.92
38939;BME280;24211;49.980;19.776;2023-05-22T09:02:43;99357.50;;;28.84;35.34
38939;BME280;24211;49.980;19.776;2023-05-22T09:05:11;99357.72;;;28.67;34.74
38939;BME280;24211;49.980;19.776;2023-05-22T09:07:38;99360.81;;;29.13;34.16
38939;BME280;24211;49.980;19.776;2023-05-22T09:10:07;99343.66;;;29.44;34.77
38939;BME280;24211;49.980;19.776;2023-05-22T09:12:34;99341.19;;;29.67;34.81
38939;BME280;24211;49.980;19.776;2023-05-22T09:15:09;99344.63;;;29.24;33.75
38939;BME280;24211;49.980;19.776;2023-05-22T09:17:40;99336.56;;;29.43;31.65
38939;BME280;24211;49.980;19.776;2023-05-22T09:20:11;99341.16;;;29.39;32.16
38939;BME280;24211;49.980;19.776;2023-05-22T09:22:41;99341.88;;;29.64;31.70
38939;BME280;24211;49.980;19.776;2023-05-22T09:25:16;99334.72;;;29.87;31.10
38939;BME280;24211;49.980;19.776;2023-05-22T09:27:46;99323.66;;;30.15;31.99
38939;BME280;24211;49.980;19.776;2023-05-22T09:30:18;99331.09;;;29.19;30.35
38939;BME280;24211;49.980;19.776;2023-05-22T09:32:47;99325.47;;;29.67;31.60
38939;BME280;24211;49.980;19.776;2023-05-22T09:35:15;99332.03;;;28.99;31.99
38939;BME280;24211;49.980;19.776;2023-05-22T09:37:44;99328.03;;;28.72;33.94
38939;BME280;24211;49.980;19.776;2023-05-22T09:40:12;99313.78;;;28.46;32.13
38939;BME280;24211;49.980;19.776;2023-05-22T09:42:43;99319.06;;;28.87;32.96
38939;BME280;24211;49.980;19.776;2023-05-22T09:45:13;99331.22;;;29.23;33.37
38939;BME280;24211;49.980;19.776;2023-05-22T09:47:40;99324.56;;;29.11;33.36
38939;BME280;24211;49.980;19.776;2023-05-22T09:50:08;99327.00;;;28.89;33.93
38939;BME280;24211;49.980;19.776;2023-05-22T09:52:36;99323.06;;;29.38;32.79
38939;BME280;24211;49.980;19.776;2023-05-22T09:55:06;99324.28;;;29.81;32.82
38939;BME280;24211;49.980;19.776;2023-05-22T09:57:43;99309.25;;;30.21;32.33
38939;BME280;24211;49.980;19.776;2023-05-22T10:00:14;99311.97;;;30.49;32.58
38939;BME280;24211;49.980;19.776;2023-05-22T10:02:49;99308.44;;;30.21;33.44
38939;BME280;24211;49.980;19.776;2023-05-22T10:05:24;99306.22;;;30.11;32.70
38939;BME280;24211;49.980;19.776;2023-05-22T10:08:05;99303.56;;;30.14;33.45
38939;BME280;24211;49.980;19.776;2023-05-22T10:10:35;99310.84;;;30.07;34.20
38939;BME280;24211;49.980;19.776;2023-05-22T10:13:05;99311.53;;;28.96;33.60
38939;BME280;24211;49.980;19.776;2023-05-22T10:15:34;99314.75;;;28.86;34.95
38939;BME280;24211;49.980;19.776;2023-05-22T10:18:02;99323.16;;;29.17;35.64
38939;BME280;24211;49.980;19.776;2023-05-22T10:20:30;99314.84;;;28.78;34.28
38939;BME280;24211;49.980;19.776;2023-05-22T10:22:58;99314.47;;;29.15;35.07
38939;BME280;24211;49.980;19.776;2023-05-22T10:25:28;99322.66;;;28.64;34.02
38939;BME280;24211;49.980;19.776;2023-05-22T10:27:57;99311.34;;;29.29;34.52
38939;BME280;24211;49.980;19.776;2023-05-22T10:33:44;99299.56;;;30.12;33.89
38939;BME280;24211;49.980;19.776;2023-05-22T10:36:53;99300.63;;;30.23;34.31
38939;BME280;24211;49.980;19.776;2023-05-22T10:40:01;99285.25;;;30.22;35.77
38939;BME280;24211;49.980;19.776;2023-05-22T10:42:31;99296.31;;;30.53;35.18
38939;BME280;24211;49.980;19.776;2023-05-22T10:45:05;99291.13;;;30.67;34.16
38939;BME280;24211;49.980;19.776;2023-05-22T10:47:33;99293.09;;;30.51;33.07
38939;BME280;24211;49.980;19.776;2023-05-22T10:52:35;99290.53;;;29.84;32.99
38939;BME280;24211;49.980;19.776;2023-05-22T10:55:09;99295.53;;;29.94;34.15
38939;BME280;24211;49.980;19.776;2023-05-22T10:57:38;99300.00;;;29.31;33.81
38939;BME280;24211;49.980;19.776;2023-05-22T11:00:08;99292.00;;;30.24;34.41
38939;BME280;24211;49.980;19.776;2023-05-22T11:02:43;99287.44;;;30.79;33.36
38939;BME280;24211;49.980;19.776;2023-05-22T11:07:48;99289.72;;;29.55;35.40
38939;BME280;24211;49.980;19.776;2023-05-22T11:10:26;99278.28;;;29.41;32.61
38939;BME280;24211;49.980;19.776;2023-05-22T11:13:10;99264.06;;;30.26;32.75
38939;BME280;24211;49.980;19.776;2023-05-22T11:15:44;99267.28;;;30.59;33.20
38939;BME280;24211;49.980;19.776;2023-05-22T11:18:12;99265.97;;;29.78;33.25
38939;BME280;24211;49.980;19.776;2023-05-22T11:20:41;99268.88;;;29.70;33.68
38939;BME280;24211;49.980;19.776;2023-05-22T11:23:10;99263.59;;;29.77;34.52
38939;BME280;24211;49.980;19.776;2023-05-22T11:25:39;99269.16;;;29.25;33.09
38939;BME280;24211;49.980;19.776;2023-05-22T11:28:07;99262.03;;;30.07;33.29
38939;BME280;24211;49.980;19.776;2023-05-22T11:30:36;99255.44;;;29.96;33.83
38939;BME280;24211;49.980;19.776;2023-05-22T11:33:04;99258.38;;;30.19;33.68
38939;BME280;24211;49.980;19.776;2023-05-22T11:35:33;99262.75;;;30.51;33.44
38939;BME280;24211;49.980;19.776;2023-05-22T11:38:04;99258.22;;;30.43;31.99
38939;BME280;24211;49.980;19.776;2023-05-22T11:40:33;99258.31;;;30.47;33.02
38939;BME280;24211;49.980;19.776;2023-05-22T11:43:00;99258.53;;;30.88;32.81
38939;BME280;24211;49.980;19.776;2023-05-22T11:45:29;99252.00;;;30.96;31.38
38939;BME280;24211;49.980;19.776;2023-05-22T11:47:57;99247.63;;;30.61;31.72
38939;BME280;24211;49.980;19.776;2023-05-22T11:50:25;99252.97;;;30.54;31.53
38939;BME280;24211;49.980;19.776;2023-05-22T11:53:09;99252.34;;;30.60;31.11
38939;BME280;24211;49.980;19.776;2023-05-22T11:55:36;99250.69;;;30.90;31.86
38939;BME280;24211;49.980;19.776;2023-05-22T11:58:03;99251.78;;;30.08;30.63
38939;BME280;24211;49.980;19.776;2023-05-22T12:00:31;99251.84;;;29.52;32.07
38939;BME280;24211;49.980;19.776;2023-05-22T12:02:59;99253.47;;;29.53;31.60
38939;BME280;24211;49.980;19.776;2023-05-22T12:05:26;99253.75;;;30.23;31.71
38939;BME280;24211;49.980;19.776;2023-05-22T12:07:54;99245.91;;;30.25;31.23
38939;BME280;24211;49.980;19.776;2023-05-22T12:10:21;99244.41;;;29.96;30.02
38939;BME280;24211;49.980;19.776;2023-05-22T12:12:49;99251.78;;;30.08;32.14
38939;BME280;24211;49.980;19.776;2023-05-22T12:15:19;99243.53;;;30.23;30.10
38939;BME280;24211;49.980;19.776;2023-05-22T12:17:47;99242.91;;;30.30;30.97
38939;BME280;24211;49.980;19.776;2023-05-22T12:20:14;99243.09;;;30.06;30.32
38939;BME280;24211;49.980;19.776;2023-05-22T12:22:42;99247.38;;;30.50;31.44
38939;BME280;24211;49.980;19.776;2023-05-22T12:25:14;99245.84;;;30.53;30.50
38939;BME280;24211;49.980;19.776;2023-05-22T12:27:44;99244.88;;;30.14;32.23
38939;BME280;24211;49.980;19.776;2023-05-22T12:30:13;99234.66;;;30.46;31.94
38939;BME280;24211;49.980;19.776;2023-05-22T12:32:46;99236.88;;;30.40;31.36
38939;BME280;24211;49.980;19.776;2023-05-22T12:35:16;99223.53;;;30.77;32.06
38939;BME280;24211;49.980;19.776;2023-05-22T12:37:48;99227.69;;;30.20;31.28
38939;BME280;24211;49.980;19.776;2023-05-22T12:40:16;99218.28;;;30.37;32.27
38939;BME280;24211;49.980;19.776;2023-05-22T12:42:43;99219.47;;;30.36;31.09
38939;BME280;24211;49.980;19.776;2023-05-22T12:45:11;99214.09;;;30.43;31.62
38939;BME280;24211;49.980;19.776;2023-05-22T12:47:39;99212.28;;;30.66;31.47
38939;BME280;24211;49.980;19.776;2023-05-22T12:50:07;99215.63;;;30.75;31.84
38939;BME280;24211;49.980;19.776;2023-05-22T12:52:34;99209.47;;;30.82;32.05
38939;BME280;24211;49.980;19.776;2023-05-22T12:55:03;99208.19;;;30.60;31.66
38939;BME280;24211;49.980;19.776;2023-05-22T12:57:30;99209.81;;;30.61;32.89
38939;BME280;24211;49.980;19.776;2023-05-22T12:59:57;99210.72;;;30.03;31.67
38939;BME280;24211;49.980;19.776;2023-05-22T13:02:25;99202.19;;;30.39;32.80
38939;BME280;24211;49.980;19.776;2023-05-22T13:04:52;99207.16;;;30.49;31.66
38939;BME280;24211;49.980;19.776;2023-05-22T13:07:19;99198.94;;;30.68;32.72
38939;BME280;24211;49.980;19.776;2023-05-22T13:09:46;99193.19;;;30.92;31.48
38939;BME280;24211;49.980;19.776;2023-05-22T13:12:14;99197.47;;;30.74;31.69
38939;BME280;24211;49.980;19.776;2023-05-22T13:14:41;99198.03;;;30.64;32.34
38939;BME280;24211;49.980;19.776;2023-05-22T13:17:08;99202.25;;;30.58;32.44
38939;BME280;24211;49.980;19.776;2023-05-22T13:19:36;99192.84;;;30.78;32.42
38939;BME280;24211;49.980;19.776;2023-05-22T13:22:04;99185.16;;;30.87;32.29
38939;BME280;24211;49.980;19.776;2023-05-22T13:24:33;99193.09;;;30.54;31.75
38939;BME280;24211;49.980;19.776;2023-05-22T13:27:01;99189.72;;;30.45;31.63
38939;BME280;24211;49.980;19.776;2023-05-22T13:29:28;99189.47;;;30.69;31.39
38939;BME280;24211;49.980;19.776;2023-05-22T13:31:56;99184.47;;;30.40;31.82
38939;BME280;24211;49.980;19.776;2023-05-22T13:34:23;99181.13;;;29.84;32.49
38939;BME280;24211;49.980;19.776;2023-05-22T13:36:51;99177.84;;;30.10;32.97
38939;BME280;24211;49.980;19.776;2023-05-22T13:39:18;99179.59;;;30.49;32.57
38939;BME280;24211;49.980;19.776;2023-05-22T13:41:45;99175.25;;;30.67;32.63
38939;BME280;24211;49.980;19.776;2023-05-22T13:44:13;99168.16;;;30.66;32.70
38939;BME280;24211;49.980;19.776;2023-05-22T13:46:40;99175.53;;;30.12;32.16
38939;BME280;24211;49.980;19.776;2023-05-22T13:49:07;99171.31;;;30.18;33.45
38939;BME280;24211;49.980;19.776;2023-05-22T13:51:35;99178.41;;;30.50;32.91
38939;BME280;24211;49.980;19.776;2023-05-22T13:54:02;99167.44;;;30.34;33.00
38939;BME280;24211;49.980;19.776;2023-05-22T13:56:30;99163.22;;;30.25;32.13
38939;BME280;24211;49.980;19.776;2023-05-22T13:58:57;99161.22;;;30.06;32.88
38939;BME280;24211;49.980;19.776;2023-05-22T14:01:24;99157.09;;;30.00;32.41
38939;BME280;24211;49.980;19.776;2023-05-22T14:03:51;99157.19;;;29.72;33.37
38939;BME280;24211;49.980;19.776;2023-05-22T14:06:19;99157.53;;;29.55;33.15
38939;BME280;24211;49.980;19.776;2023-05-22T14:08:47;99156.66;;;29.67;33.55
38939;BME280;24211;49.980;19.776;2023-05-22T14:11:14;99160.63;;;29.54;33.42
38939;BME280;24211;49.980;19.776;2023-05-22T14:13:42;99158.59;;;29.66;33.24
38939;BME280;24211;49.980;19.776;2023-05-22T14:16:09;99153.56;;;29.25;33.76
38939;BME280;24211;49.980;19.776;2023-05-22T14:18:36;99161.75;;;28.82;34.79
38939;BME280;24211;49.980;19.776;2023-05-22T14:21:04;99154.03;;;29.15;34.46
38939;BME280;24211;49.980;19.776;2023-05-22T14:23:31;99145.97;;;29.50;34.64
38939;BME280;24211;49.980;19.776;2023-05-22T14:25:58;99149.63;;;29.69;34.33
38939;BME280;24211;49.980;19.776;2023-05-22T14:28:25;99139.56;;;29.61;34.23